Time;durP1;ratioP1;P1;durP2;ratioP2;P2;SDS_P1;SDS_P2;PMS_P1;PMS_P2;Temp;Humidity;BMP_temperature;BMP_pressure;BME280_temperature;BME280_humidity;BME280_pressure;Samples;Min_cycle;Max_cycle;Signal;HPM_P1;HPM_P2
2021/12/18 00:00:41;;;;;;;2.05;1.92;;;;;;;6.93;56.67;99581.34;3377604;29;20148;-71
2021/12/18 00:02:22;;;;;;;2.88;2.17;;;;;;;6.93;56.38;99578.69;3378007;29;20081;-70
2021/12/18 00:04:03;;;;;;;2.50;2.27;;;;;;;6.93;56.56;99577.88;3377856;29;20079;-72
2021/12/18 00:05:44;;;;;;;2.58;2.38;;;;;;;6.94;56.44;99584.81;3378028;29;20048;-71
2021/12/18 00:07:25;;;;;;;2.63;2.10;;;;;;;6.95;56.57;99573.22;3377580;29;20072;-71
2021/12/18 00:09:08;;;;;;;2.50;2.05;;;;;;;6.96;56.49;99591.59;3377300;29;20052;-72
2021/12/18 00:10:52;;;;;;;3.53;2.22;;;;;;;6.94;56.51;99580.38;3377618;29;20044;-72
2021/12/18 00:12:32;;;;;;;3.20;2.55;;;;;;;6.97;56.51;99580.00;3378326;29;20044;-71
2021/12/18 00:14:13;;;;;;;4.32;2.40;;;;;;;6.98;56.52;99586.94;3381932;29;20044;-73
2021/12/18 00:15:55;;;;;;;3.35;3.05;;;;;;;6.98;56.62;99575.53;3390587;29;20051;-71
2021/12/18 00:17:35;;;;;;;3.95;1.75;;;;;;;6.96;56.60;99575.69;3389365;29;20111;-72
2021/12/18 00:19:17;;;;;;;3.95;1.98;;;;;;;6.94;56.55;99574.22;3387784;29;20036;-71
2021/12/18 00:20:59;;;;;;;2.58;2.38;;;;;;;6.94;56.58;99575.06;3390120;29;20408;-71
2021/12/18 00:22:41;;;;;;;4.70;2.55;;;;;;;6.94;56.61;99569.75;3388349;29;20040;-71
2021/12/18 00:24:22;;;;;;;3.28;2.60;;;;;;;6.95;56.60;99571.41;3390243;29;20040;-71
2021/12/18 00:26:02;;;;;;;2.90;2.00;;;;;;;6.93;56.62;99570.75;3390229;29;20400;-71
2021/12/18 00:27:43;;;;;;;3.17;2.03;;;;;;;6.97;56.62;99573.88;3390321;29;20067;-72
2021/12/18 00:29:24;;;;;;;2.50;2.30;;;;;;;6.97;56.47;99582.66;3390274;29;20044;-72
2021/12/18 00:31:05;;;;;;;4.05;2.60;;;;;;;6.93;56.39;99575.22;3389841;29;20044;-73
2021/12/18 00:32:47;;;;;;;5.50;2.22;;;;;;;6.91;56.43;99577.22;3390057;29;20032;-71
2021/12/18 00:34:28;;;;;;;2.50;1.70;;;;;;;6.90;56.67;99578.22;3383344;29;20039;-72
2021/12/18 00:36:08;;;;;;;2.08;1.88;;;;;;;6.88;56.62;99575.75;3377130;29;20052;-72
2021/12/18 00:37:49;;;;;;;2.47;1.92;;;;;;;6.88;56.47;99575.75;3376959;29;20070;-73
2021/12/18 00:39:32;;;;;;;1.80;1.60;;;;;;;6.88;56.63;99580.22;3376973;29;20191;-72
2021/12/18 00:41:27;;;;;;;1.83;1.65;;;;;;;6.88;56.52;99574.91;3389582;29;20523;-71
2021/12/18 00:43:21;;;;;;;2.05;1.88;;;;;;;6.89;56.58;99577.41;3389575;29;20100;-71
2021/12/18 00:45:12;;;;;;;1.77;1.65;;;;;;;6.90;56.74;99579.03;3387564;29;20040;-72
2021/12/18 00:46:52;;;;;;;1.98;1.60;;;;;;;6.86;56.56;99572.44;3400973;29;20404;-72
2021/12/18 00:48:33;;;;;;;1.70;1.60;;;;;;;6.87;56.69;99578.59;3392308;29;20119;-72
2021/12/18 00:50:21;;;;;;;7.47;2.20;;;;;;;6.87;56.60;99568.81;3389468;29;20051;-72
2021/12/18 00:52:04;;;;;;;1.85;1.55;;;;;;;6.87;56.64;99573.28;3389476;29;20392;-71
2021/12/18 00:53:45;;;;;;;2.38;1.75;;;;;;;6.87;56.57;99571.44;3390113;29;20056;-71
2021/12/18 00:55:26;;;;;;;1.77;1.67;;;;;;;6.88;56.54;99575.75;3387508;29;20044;-71
2021/12/18 00:57:09;;;;;;;1.85;1.65;;;;;;;6.84;56.55;99568.31;3389858;29;20151;-71
2021/12/18 00:58:51;;;;;;;3.13;1.95;;;;;;;6.88;56.52;99583.69;3389776;29;20500;-72
2021/12/18 01:00:32;;;;;;;1.85;1.50;;;;;;;6.88;56.55;99581.03;3389513;29;20059;-72
2021/12/18 01:02:14;;;;;;;1.98;1.60;;;;;;;6.88;56.52;99586.34;3389952;29;20040;-72
2021/12/18 01:03:55;;;;;;;3.17;1.40;;;;;;;6.89;56.45;99576.56;3390178;29;20130;-72
2021/12/18 01:05:36;;;;;;;4.53;1.60;;;;;;;6.89;56.58;99580.06;3389648;29;20102;-72
2021/12/18 01:07:17;;;;;;;2.08;1.67;;;;;;;6.88;56.96;99591.63;3389544;29;20044;-72
2021/12/18 01:08:57;;;;;;;2.65;1.60;;;;;;;6.89;56.65;99587.16;3402486;29;20077;-71
2021/12/18 01:12:43;;;;;;;2.00;1.77;;;;;;;6.91;56.30;99593.94;3386288;29;20094;-72
2021/12/18 01:16:18;;;;;;;3.95;1.98;;;;;;;6.92;56.49;99590.31;3390714;29;20044;-71
2021/12/18 01:23:45;;;;;;;2.33;1.80;;;;;;;6.94;56.58;99585.66;3381171;29;20040;-72
2021/12/18 01:25:26;;;;;;;3.90;2.72;;;;;;;6.95;56.50;99586.47;3387810;29;20051;-73
2021/12/18 01:27:07;;;;;;;1.63;1.52;;;;;;;6.95;56.38;99576.69;3388327;29;20074;-70
2021/12/18 01:28:48;;;;;;;2.22;2.03;;;;;;;6.95;56.22;99579.34;3384068;29;20045;-71
2021/12/18 01:30:29;;;;;;;2.83;1.83;;;;;;;6.94;56.46;99582.16;3384719;29;20044;-71
2021/12/18 01:32:10;;;;;;;3.53;2.17;;;;;;;6.91;56.50;99580.69;3387085;29;20059;-72
2021/12/18 01:33:50;;;;;;;1.95;1.80;;;;;;;6.92;56.47;99582.34;3389373;29;20473;-72
2021/12/18 01:35:31;;;;;;;1.75;1.52;;;;;;;6.93;56.56;99581.34;3400112;29;20047;-71
2021/12/18 01:37:12;;;;;;;3.10;2.10;;;;;;;6.92;56.65;99587.66;3403006;29;20039;-71
2021/12/18 01:38:53;;;;;;;2.20;1.88;;;;;;;6.92;56.64;99587.66;3393922;29;20480;-71
2021/12/18 01:40:33;;;;;;;2.35;1.80;;;;;;;6.92;56.68;99587.66;3398691;29;20047;-71
2021/12/18 01:46:46;;;;;;;2.08;1.70;;;;;;;6.93;56.42;99585.81;3402685;29;20051;-72
2021/12/18 01:52:32;;;;;;;2.75;1.85;;;;;;;6.90;56.51;99589.66;3389442;29;20064;-70
2021/12/18 01:54:14;;;;;;;2.47;2.13;;;;;;;6.91;56.31;99591.28;3389425;29;20408;-71
2021/12/18 01:55:54;;;;;;;2.17;1.98;;;;;;;6.91;56.55;99591.28;3389568;29;20078;-71
2021/12/18 01:57:36;;;;;;;3.92;2.20;;;;;;;6.88;56.57;99588.16;3388951;29;20472;-71
2021/12/18 01:59:17;;;;;;;2.50;1.85;;;;;;;6.88;56.55;99593.47;3389632;29;20048;-71
2021/12/18 02:00:58;;;;;;;4.18;3.13;;;;;;;6.86;56.57;99593.63;3401961;29;20147;-72
2021/12/18 02:02:39;;;;;;;4.40;2.00;;;;;;;6.84;56.59;99578.91;3415783;29;20170;-73
2021/12/18 02:04:19;;;;;;;3.63;2.33;;;;;;;6.85;56.45;99585.88;3415402;29;20549;-71
2021/12/18 02:06:00;;;;;;;2.85;2.15;;;;;;;6.84;56.52;99598.28;3415777;29;20047;-71
2021/12/18 02:07:42;;;;;;;2.97;2.42;;;;;;;6.83;56.47;99596.63;3404626;29;20134;-72
2021/12/18 02:09:27;;;;;;;4.32;3.30;;;;;;;6.84;56.47;99598.28;3425669;28;20457;-72
2021/12/18 02:11:16;;;;;;;2.10;1.90;;;;;;;6.82;56.45;99600.28;3428849;28;20042;-71
2021/12/18 02:21:10;;;;;;;2.95;2.25;;;;;;;6.81;56.63;99606.56;3401368;29;20517;-71
2021/12/18 02:22:55;;;;;;;3.95;2.90;;;;;;;6.78;56.70;99602.44;3413579;29;20100;-72
2021/12/18 02:24:36;;;;;;;3.08;2.10;;;;;;;6.79;56.80;99608.56;3415657;29;20519;-72
2021/12/18 02:26:17;;;;;;;4.10;2.55;;;;;;;6.78;56.87;99607.72;3415894;29;20098;-71
2021/12/18 02:27:57;;;;;;;3.38;2.63;;;;;;;6.76;56.95;99608.91;3416053;28;20426;-71
2021/12/18 02:29:40;;;;;;;2.25;2.05;;;;;;;6.76;57.00;99608.91;3428742;28;20053;-71
2021/12/18 02:31:21;;;;;;;5.80;2.53;;;;;;;6.72;57.05;99612.91;3414429;28;20042;-71
2021/12/18 02:33:01;;;;;;;1.88;1.50;;;;;;;6.68;57.18;99612.41;3426554;28;20454;-72
2021/12/18 02:34:51;;;;;;;2.92;1.45;;;;;;;6.67;57.32;99604.66;3415449;28;20044;-70
2021/12/18 02:36:32;;;;;;;1.55;1.45;;;;;;;6.64;57.36;99611.09;3415580;29;20525;-71
2021/12/18 02:38:20;;;;;;;1.08;0.95;;;;;;;6.62;57.12;99620.22;3416801;28;20102;-71
2021/12/18 02:41:08;;;;;;;1.77;1.27;;;;;;;6.59;57.28;99610.78;3428788;28;20517;-70
2021/12/18 02:42:22;;;;;;;1.48;0.90;;;;;;;6.53;57.10;99620.25;3411648;28;20081;-68
2021/12/18 02:44:05;;;;;;;7.53;0.80;;;;;;;6.53;58.09;99622.91;3428992;28;20038;-72
2021/12/18 02:45:46;;;;;;;6.72;1.30;;;;;;;6.69;60.95;99618.56;3429043;28;20045;-73
2021/12/18 02:47:27;;;;;;;9.68;1.17;;;;;;;6.94;63.87;99622.75;3414680;29;20074;-74
2021/12/18 02:49:13;;;;;;;2.35;0.90;;;;;;;7.22;65.90;99624.91;3424109;28;20234;-73
2021/12/18 02:50:54;;;;;;;1.30;0.90;;;;;;;7.46;63.66;99628.41;3428451;28;20130;-74
2021/12/18 02:52:35;;;;;;;1.33;1.23;;;;;;;7.63;63.07;99629.94;3414605;29;20075;-74
2021/12/18 02:54:16;;;;;;;5.70;1.20;;;;;;;7.79;63.70;99632.47;3426156;28;20094;-73
2021/12/18 02:55:59;;;;;;;2.53;1.10;;;;;;;7.96;63.81;99627.06;3428786;28;20125;-74
2021/12/18 02:57:39;;;;;;;1.00;0.80;;;;;;;8.11;64.61;99619.94;3429071;28;20049;-75
2021/12/18 02:59:21;;;;;;;1.55;1.20;;;;;;;8.40;65.76;99621.84;3423215;28;20502;-73
2021/12/18 03:01:03;;;;;;;0.88;0.88;;;;;;;8.68;66.38;99624.69;3415429;28;20059;-75
2021/12/18 03:02:45;;;;;;;2.05;0.70;;;;;;;8.95;65.95;99627.69;3419428;29;20043;-74
2021/12/18 03:04:32;;;;;;;2.70;1.00;;;;;;;9.13;64.01;99620.13;3423688;29;20534;-75
2021/12/18 03:08:09;;;;;;;1.13;0.70;;;;;;;9.37;63.47;99621.66;3419528;28;20039;-73
2021/12/18 03:21:14;;;;;;;0.65;0.50;;;;;;;9.71;60.02;99621.97;3376255;29;20052;-73
2021/12/18 03:26:02;;;;;;;10.00;0.90;;;;;;;10.19;60.72;99624.81;3431061;28;20572;-74
2021/12/18 03:27:43;;;;;;;0.90;0.63;;;;;;;10.31;59.41;99631.31;3430866;28;20042;-74
2021/12/18 03:29:24;;;;;;;1.30;0.60;;;;;;;10.38;59.01;99634.03;3427313;28;20035;-73
2021/12/18 03:31:05;;;;;;;1.45;0.70;;;;;;;10.40;57.89;99634.63;3417736;28;20050;-74
2021/12/18 03:32:46;;;;;;;2.22;0.65;;;;;;;10.40;57.60;99631.97;3417859;29;20058;-74
2021/12/18 03:34:27;;;;;;;0.98;0.52;;;;;;;10.49;58.34;99641.47;3403166;29;20040;-73
2021/12/18 03:36:08;;;;;;;0.88;0.82;;;;;;;10.58;57.57;99644.78;3414557;29;20048;-73
2021/12/18 03:37:49;;;;;;;2.00;1.05;;;;;;;10.63;56.90;99634.38;3403397;29;20051;-74
2021/12/18 03:39:30;;;;;;;0.70;0.70;;;;;;;10.66;56.92;99625.97;3419530;28;20113;-73
2021/12/18 03:41:10;;;;;;;2.67;0.63;;;;;;;10.79;56.99;99635.88;3430983;28;20525;-74
2021/12/18 03:42:51;;;;;;;0.82;0.82;;;;;;;10.90;56.82;99633.50;3430510;28;20050;-74
2021/12/18 03:44:33;;;;;;;0.90;0.80;;;;;;;10.97;55.20;99638.03;3430781;28;20061;-74
2021/12/18 03:46:14;;;;;;;0.85;0.75;;;;;;;10.93;54.47;99634.13;3430808;28;20043;-74
2021/12/18 03:47:55;;;;;;;1.13;0.70;;;;;;;10.83;53.81;99635.31;3430762;28;20512;-73
2021/12/18 03:49:35;;;;;;;0.50;0.50;;;;;;;10.77;54.61;99633.44;3426543;28;20402;-74
2021/12/18 03:51:16;;;;;;;0.98;0.93;;;;;;;10.75;54.13;99637.31;3416990;28;20079;-74
2021/12/18 03:52:57;;;;;;;2.33;0.68;;;;;;;10.65;53.43;99640.34;3417253;29;20197;-73
2021/12/18 03:54:37;;;;;;;1.73;0.77;;;;;;;10.53;53.65;99637.38;3417336;29;20051;-74
2021/12/18 03:56:19;;;;;;;0.73;0.73;;;;;;;10.47;53.50;99646.97;3417164;29;20078;-73
2021/12/18 03:58:00;;;;;;;0.77;0.57;;;;;;;10.43;53.24;99643.06;3417825;29;20053;-74
2021/12/18 03:59:40;;;;;;;0.98;0.70;;;;;;;10.43;52.96;99650.25;3418655;28;20043;-73
2021/12/18 04:01:21;;;;;;;1.80;0.80;;;;;;;10.44;53.04;99642.06;3416331;28;20506;-74
2021/12/18 04:03:03;;;;;;;0.80;0.60;;;;;;;10.47;53.64;99639.00;3423331;28;20153;-73
2021/12/18 04:04:43;;;;;;;0.60;0.60;;;;;;;10.51;53.23;99638.59;3417579;29;20043;-73
2021/12/18 04:06:24;;;;;;;0.70;0.70;;;;;;;10.51;52.64;99643.91;3417363;29;20043;-72
2021/12/18 04:08:11;;;;;;;0.98;0.73;;;;;;;10.47;52.37;99644.31;3417493;29;20053;-73
2021/12/18 04:09:51;;;;;;;3.03;0.98;;;;;;;10.39;52.30;99639.16;3419752;28;20038;-73
2021/12/18 04:11:33;;;;;;;1.10;1.00;;;;;;;10.31;52.08;99652.63;3430165;28;20050;-74
2021/12/18 04:13:13;;;;;;;0.93;0.93;;;;;;;10.22;51.90;99656.41;3430363;28;20386;-75
2021/12/18 04:14:54;;;;;;;0.80;0.80;;;;;;;10.16;51.79;99657.19;3430182;28;20042;-74
2021/12/18 04:16:35;;;;;;;1.38;1.00;;;;;;;10.12;52.76;99656.75;3430383;28;20129;-73
2021/12/18 04:18:15;;;;;;;1.65;0.60;;;;;;;10.20;53.53;99647.78;3430335;28;20569;-73
2021/12/18 04:19:56;;;;;;;0.75;0.60;;;;;;;10.29;53.15;99646.66;3427216;28;20106;-72
2021/12/18 04:21:37;;;;;;;1.20;0.70;;;;;;;10.36;52.63;99657.38;3416013;28;20276;-72
2021/12/18 04:23:17;;;;;;;1.45;0.85;;;;;;;10.33;52.00;99650.59;3416719;29;20566;-73
2021/12/18 04:24:58;;;;;;;1.88;0.80;;;;;;;10.35;52.24;99661.88;3417274;29;20043;-73
2021/12/18 04:26:39;;;;;;;0.60;0.60;;;;;;;10.35;51.93;99656.56;3416953;29;20426;-73
2021/12/18 04:28:20;;;;;;;0.85;0.52;;;;;;;10.41;52.78;99666.41;3416613;29;20415;-73
2021/12/18 04:30:01;;;;;;;1.40;0.75;;;;;;;10.44;52.62;99650.03;3420537;28;20041;-73
2021/12/18 04:31:41;;;;;;;0.85;0.60;;;;;;;10.55;53.08;99655.84;3429236;28;20053;-72
2021/12/18 04:33:22;;;;;;;1.77;0.70;;;;;;;10.63;52.49;99653.84;3402695;29;20047;-72
2021/12/18 04:35:03;;;;;;;1.17;0.70;;;;;;;10.73;52.69;99648.16;3413905;29;20518;-72
2021/12/18 04:36:44;;;;;;;0.57;0.57;;;;;;;10.82;52.83;99641.66;3417039;29;20043;-73
2021/12/18 04:38:25;;;;;;;2.05;0.77;;;;;;;10.81;51.78;99645.34;3416745;29;20043;-73
2021/12/18 04:40:06;;;;;;;1.27;0.80;;;;;;;10.70;51.13;99651.22;3390116;29;20435;-72
2021/12/18 04:41:50;;;;;;;1.35;0.88;;;;;;;10.51;50.96;99646.59;3411404;28;20200;-72
2021/12/18 04:43:31;;;;;;;1.35;0.68;;;;;;;10.30;50.94;99647.47;3417095;29;20053;-71
2021/12/18 04:45:11;;;;;;;1.27;0.88;;;;;;;10.15;50.81;99655.53;3416659;28;20043;-72
2021/12/18 04:46:53;;;;;;;0.95;0.88;;;;;;;9.97;50.90;99654.16;3416389;29;20057;-73
2021/12/18 04:48:33;;;;;;;1.48;0.73;;;;;;;9.84;51.04;99654.03;3416841;29;20039;-73
2021/12/18 04:50:15;;;;;;;2.58;0.65;;;;;;;9.70;51.15;99650.41;3423429;28;20046;-72
2021/12/18 04:51:55;;;;;;;1.10;0.80;;;;;;;9.50;51.23;99644.91;3429862;28;20034;-73
2021/12/18 04:53:36;;;;;;;11.60;1.33;;;;;;;9.44;51.37;99658.13;3391200;29;20084;-73
2021/12/18 04:55:17;;;;;;;1.33;1.00;;;;;;;9.31;51.39;99656.13;3411078;29;20046;-73
2021/12/18 04:56:58;;;;;;;0.70;0.70;;;;;;;9.24;51.35;99656.06;3402295;29;20055;-73
2021/12/18 04:58:39;;;;;;;0.70;0.70;;;;;;;9.16;51.39;99649.03;3426805;28;20101;-72
2021/12/18 05:00:22;;;;;;;1.65;0.98;;;;;;;9.11;51.41;99651.44;3405767;29;20411;-73
2021/12/18 05:02:02;;;;;;;1.23;0.80;;;;;;;9.06;51.59;99655.63;3400531;29;20071;-73
2021/12/18 05:03:44;;;;;;;0.90;0.80;;;;;;;8.99;51.56;99658.22;3403222;29;20525;-73
2021/12/18 05:05:25;;;;;;;1.08;0.80;;;;;;;8.94;51.59;99652.63;3402958;29;20074;-72
2021/12/18 05:07:06;;;;;;;1.08;0.90;;;;;;;8.87;51.61;99662.34;3403206;29;20500;-72
2021/12/18 05:08:47;;;;;;;1.40;0.98;;;;;;;8.79;51.71;99659.78;3389106;29;20048;-72
2021/12/18 05:10:28;;;;;;;2.33;0.82;;;;;;;8.71;51.74;99658.84;3404125;29;20048;-73
2021/12/18 05:12:10;;;;;;;3.85;1.30;;;;;;;8.68;51.81;99663.72;3403036;29;20051;-73
2021/12/18 05:13:50;;;;;;;2.85;1.00;;;;;;;8.68;51.65;99669.88;3410652;29;20035;-73
2021/12/18 05:15:32;;;;;;;1.02;0.90;;;;;;;8.61;51.64;99658.31;3416003;29;20116;-73
2021/12/18 05:17:13;;;;;;;1.30;1.20;;;;;;;8.61;51.62;99658.31;3416166;29;20486;-73
2021/12/18 05:18:54;;;;;;;1.45;1.10;;;;;;;8.59;51.65;99665.63;3415614;29;20047;-72
2021/12/18 05:20:34;;;;;;;2.40;1.10;;;;;;;8.55;51.79;99668.84;3409610;29;20043;-71
2021/12/18 05:22:15;;;;;;;2.53;0.93;;;;;;;8.51;51.72;99674.50;3402915;29;20056;-73
2021/12/18 05:23:56;;;;;;;1.55;0.98;;;;;;;8.52;52.19;99664.72;3401898;29;20047;-72
2021/12/18 05:25:37;;;;;;;1.02;0.70;;;;;;;8.62;53.30;99665.28;3388994;29;20036;-72
2021/12/18 05:27:18;;;;;;;2.20;0.90;;;;;;;8.78;53.40;99663.44;3400329;29;20051;-73
2021/12/18 05:28:58;;;;;;;1.75;1.52;;;;;;;8.84;52.65;99660.06;3402872;29;20047;-74
2021/12/18 05:30:39;;;;;;;2.20;1.52;;;;;;;8.90;52.28;99664.63;3406599;29;20125;-74
2021/12/18 05:32:20;;;;;;;3.55;1.45;;;;;;;8.89;51.95;99663.00;3416082;29;20122;-72
2021/12/18 05:34:03;;;;;;;3.13;1.90;;;;;;;8.87;52.22;99668.47;3416019;28;20077;-75
2021/12/18 05:35:43;;;;;;;1.02;0.77;;;;;;;8.91;53.67;99653.00;3416363;29;20043;-74
2021/12/18 05:39:10;;;;;;;3.58;1.50;;;;;;;9.08;52.08;99659.75;3416533;29;20105;-73
2021/12/18 05:40:51;;;;;;;5.53;1.80;;;;;;;9.00;51.77;99657.19;3414692;28;20126;-73
2021/12/18 05:42:32;;;;;;;3.42;1.75;;;;;;;8.88;51.62;99648.03;3416733;29;20119;-73
2021/12/18 05:44:12;;;;;;;3.63;1.70;;;;;;;8.84;51.36;99662.72;3406825;29;20054;-74
2021/12/18 05:45:53;;;;;;;1.75;1.60;;;;;;;8.82;51.43;99662.06;3402965;29;20165;-74
2021/12/18 05:47:35;;;;;;;3.55;1.55;;;;;;;8.87;51.84;99659.69;3403221;29;20054;-74
2021/12/18 05:49:16;;;;;;;1.90;1.25;;;;;;;9.01;52.84;99664.19;3403057;29;20050;-73
2021/12/18 05:50:57;;;;;;;3.95;1.50;;;;;;;9.11;52.66;99654.09;3403828;29;20119;-75
2021/12/18 05:52:39;;;;;;;3.95;2.03;;;;;;;9.15;51.98;99660.66;3403236;29;20503;-74
2021/12/18 05:54:20;;;;;;;2.28;1.95;;;;;;;9.12;51.66;99665.53;3403212;29;20043;-74
2021/12/18 05:56:00;;;;;;;3.47;1.55;;;;;;;9.09;51.90;99661.41;3402772;29;20047;-74
2021/12/18 05:57:44;;;;;;;3.30;2.10;;;;;;;9.13;52.79;99659.19;3403585;29;20534;-74
2021/12/18 05:59:24;;;;;;;3.53;1.88;;;;;;;9.16;52.14;99662.31;3402427;29;20074;-72
2021/12/18 06:01:05;;;;;;;3.13;2.13;;;;;;;9.16;51.44;99661.47;3413626;28;20109;-73
2021/12/18 06:02:46;;;;;;;5.13;2.20;;;;;;;9.07;50.98;99666.09;3429296;28;20121;-73
2021/12/18 06:04:27;;;;;;;3.42;2.13;;;;;;;9.01;51.04;99666.84;3428971;28;20050;-73
2021/12/18 06:06:08;;;;;;;3.03;1.20;;;;;;;9.03;51.97;99651.50;3428938;28;20126;-73
2021/12/18 06:07:54;;;;;;;2.55;1.50;;;;;;;9.23;52.75;99662.38;3412884;29;20549;-74
2021/12/18 06:09:36;;;;;;;3.67;1.85;;;;;;;9.47;53.18;99666.53;3427131;28;20047;-74
2021/12/18 06:11:20;;;;;;;6.18;2.92;;;;;;;9.63;52.48;99664.66;3423960;28;20047;-74
2021/12/18 06:13:02;;;;;;;5.43;2.67;;;;;;;9.73;51.34;99666.03;3423521;28;20038;-73
2021/12/18 06:14:42;;;;;;;;;;;;;;;9.82;51.55;99674.69;3429290;28;20418;-74
2021/12/18 06:16:23;;;;;;;2.03;1.70;;;;;;;9.87;51.62;99676.78;3428791;28;19917;-73
2021/12/18 06:18:04;;;;;;;3.90;2.10;;;;;;;9.86;50.91;99672.47;3412262;29;20032;-73
2021/12/18 06:19:44;;;;;;;3.85;2.10;;;;;;;9.86;51.13;99675.13;3414720;28;20078;-72
2021/12/18 06:21:25;;;;;;;2.08;1.38;;;;;;;9.96;51.76;99671.13;3424011;28;20123;-74
2021/12/18 06:23:06;;;;;;;2.97;1.83;;;;;;;10.18;51.66;99676.47;3426497;28;20054;-74
2021/12/18 06:24:46;;;;;;;4.88;2.17;;;;;;;10.29;50.79;99667.97;3415395;29;20047;-73
2021/12/18 06:26:27;;;;;;;2.47;1.50;;;;;;;10.39;50.66;99673.78;3415445;29;20059;-72
2021/12/18 06:28:08;;;;;;;3.08;1.48;;;;;;;10.48;50.68;99680.63;3424567;28;20046;-73
2021/12/18 06:29:49;;;;;;;4.70;1.88;;;;;;;10.49;49.98;99678.78;3428864;28;20245;-74
2021/12/18 06:31:31;;;;;;;4.05;2.58;;;;;;;10.45;49.40;99677.50;3422635;28;20066;-73
2021/12/18 06:33:12;;;;;;;2.88;1.98;;;;;;;10.41;49.74;99662.94;3428721;28;20042;-74
2021/12/18 06:34:52;;;;;;;4.80;2.00;;;;;;;10.46;50.01;99668.50;3428659;28;20046;-74
2021/12/18 06:36:33;;;;;;;2.20;1.63;;;;;;;10.47;49.38;99676.28;3428892;28;20054;-76
2021/12/18 06:38:14;;;;;;;5.20;1.50;;;;;;;10.52;49.71;99661.56;3429453;28;20498;-77
2021/12/18 06:39:55;;;;;;;2.42;1.58;;;;;;;10.61;49.94;99666.56;3401496;29;20055;-78
2021/12/18 06:41:36;;;;;;;5.45;2.15;;;;;;;10.69;49.31;99663.75;3418881;28;20506;-77
2021/12/18 06:43:17;;;;;;;1.67;1.13;;;;;;;10.58;48.53;99660.78;3415617;29;20066;-74
2021/12/18 06:44:58;;;;;;;4.13;1.40;;;;;;;10.58;48.63;99666.94;3415722;28;20039;-72
2021/12/18 06:46:38;;;;;;;4.20;1.13;;;;;;;10.60;49.57;99672.09;3403939;29;20086;-72
2021/12/18 06:48:19;;;;;;;6.50;1.55;;;;;;;10.68;49.96;99667.41;3415059;29;20047;-72
2021/12/18 06:50:00;;;;;;;2.95;1.17;;;;;;;10.85;50.15;99667.94;3418139;29;20046;-72
2021/12/18 06:51:40;;;;;;;3.90;1.10;;;;;;;11.09;50.01;99673.78;3406354;29;20035;-72
2021/12/18 06:53:21;;;;;;;11.20;1.13;;;;;;;11.21;49.60;99669.53;3416254;29;20105;-71
2021/12/18 06:55:03;;;;;;;1.65;1.10;;;;;;;11.25;48.72;99668.09;3418436;29;20068;-73
2021/12/18 06:56:44;;;;;;;2.25;1.15;;;;;;;11.19;47.81;99658.25;3418161;29;20042;-73
2021/12/18 06:58:24;;;;;;;2.40;1.23;;;;;;;11.03;47.30;99663.94;3418136;29;20194;-73
2021/12/18 07:00:07;;;;;;;1.58;0.95;;;;;;;10.79;46.88;99658.06;3417995;29;20043;-73
2021/12/18 07:01:52;;;;;;;2.13;1.20;;;;;;;10.54;46.79;99648.88;3420538;28;20502;-72
2021/12/18 07:03:34;;;;;;;2.45;1.80;;;;;;;10.32;46.82;99656.09;3416982;29;20047;-73
2021/12/18 07:05:15;;;;;;;5.45;4.05;;;;;;;10.12;46.87;99653.25;3428750;28;20042;-75
2021/12/18 07:06:56;;;;;;;4.95;3.17;;;;;;;10.01;46.77;99655.41;3431098;28;20066;-73
2021/12/18 07:08:37;;;;;;;3.80;2.90;;;;;;;9.96;47.51;99663.16;3431498;28;20039;-73
2021/12/18 07:10:18;;;;;;;3.42;2.97;;;;;;;9.91;47.33;99657.56;3433210;28;20063;-75
2021/12/18 07:11:59;;;;;;;2.42;1.95;;;;;;;9.85;47.38;99655.69;3431281;28;20069;-74
2021/12/18 07:13:40;;;;;;;3.13;2.42;;;;;;;9.75;47.37;99653.31;3433765;28;20502;-74
2021/12/18 07:15:20;;;;;;;2.92;1.60;;;;;;;9.63;47.26;99649.53;3430850;28;20498;-74
2021/12/18 07:17:01;;;;;;;2.17;1.85;;;;;;;9.55;47.58;99645.16;3431225;28;20121;-74
2021/12/18 07:18:42;;;;;;;4.47;1.42;;;;;;;9.60;48.29;99655.22;3416849;28;20047;-74
2021/12/18 07:20:23;;;;;;;2.70;1.80;;;;;;;9.63;47.84;99657.53;3414125;29;20446;-74
2021/12/18 07:22:04;;;;;;;2.95;1.85;;;;;;;9.62;47.55;99666.50;3415787;29;20045;-73
2021/12/18 07:23:44;;;;;;;2.83;1.83;;;;;;;9.54;47.58;99659.47;3417684;29;20061;-73
2021/12/18 07:25:25;;;;;;;4.50;1.75;;;;;;;9.49;47.61;99655.72;3417531;29;20043;-73
2021/12/18 07:27:06;;;;;;;3.97;1.50;;;;;;;9.44;47.45;99658.94;3403468;29;20043;-72
2021/12/18 07:28:47;;;;;;;3.60;1.88;;;;;;;9.40;47.33;99647.03;3414813;29;20046;-74
2021/12/18 07:30:28;;;;;;;3.75;1.77;;;;;;;9.37;47.64;99658.03;3420330;28;20528;-75
2021/12/18 07:32:08;;;;;;;2.67;1.70;;;;;;;9.30;47.69;99652.66;3417569;29;20117;-72
2021/12/18 07:33:49;;;;;;;3.80;1.98;;;;;;;9.26;47.98;99651.38;3425637;28;20506;-73
2021/12/18 07:35:30;;;;;;;7.07;1.90;;;;;;;9.20;47.98;99656.63;3423514;28;20438;-74
2021/12/18 07:37:10;;;;;;;4.47;2.00;;;;;;;9.14;47.62;99667.00;3417474;28;20066;-73
2021/12/18 07:38:51;;;;;;;5.55;1.98;;;;;;;9.11;48.01;99663.88;3409470;29;20039;-73
2021/12/18 07:40:32;;;;;;;3.03;1.85;;;;;;;9.11;48.46;99674.50;3424886;28;20405;-73
2021/12/18 07:42:13;;;;;;;9.25;2.33;;;;;;;9.12;49.09;99661.03;3421328;28;20145;-73
2021/12/18 07:43:54;;;;;;;4.97;2.20;;;;;;;9.12;49.01;99665.53;3417301;29;20122;-73
2021/12/18 07:45:35;;;;;;;3.78;1.90;;;;;;;9.11;49.29;99664.72;3402927;29;20427;-74
2021/12/18 07:47:15;;;;;;;3.95;1.88;;;;;;;9.08;49.41;99669.56;3414708;29;20047;-73
2021/12/18 07:48:56;;;;;;;3.50;1.92;;;;;;;9.05;49.73;99669.94;3417316;29;20098;-73
2021/12/18 07:50:37;;;;;;;2.60;2.03;;;;;;;9.00;49.73;99662.50;3403117;29;20040;-72
2021/12/18 07:52:18;;;;;;;4.18;2.38;;;;;;;8.95;49.79;99665.72;3406342;29;20543;-74
2021/12/18 07:53:59;;;;;;;9.07;2.83;;;;;;;8.91;49.97;99663.63;3414548;29;20035;-73
2021/12/18 07:55:40;;;;;;;6.85;2.80;;;;;;;8.95;50.35;99665.72;3411250;29;20070;-73
2021/12/18 07:57:21;;;;;;;3.10;2.05;;;;;;;8.99;50.20;99670.69;3402953;29;20535;-72
2021/12/18 07:59:02;;;;;;;6.68;2.50;;;;;;;8.97;50.37;99668.19;3410058;28;20098;-71
2021/12/18 08:00:43;;;;;;;3.85;1.92;;;;;;;8.92;50.41;99665.28;3416495;29;20039;-72
2021/12/18 08:02:24;;;;;;;3.38;2.20;;;;;;;8.83;50.59;99664.56;3417483;28;20471;-72
2021/12/18 08:04:05;;;;;;;4.28;1.88;;;;;;;8.77;50.65;99667.09;3416687;29;20171;-73
2021/12/18 08:05:46;;;;;;;3.75;1.90;;;;;;;8.67;50.37;99665.56;3414559;29;20102;-73
2021/12/18 08:07:26;;;;;;;4.10;1.60;;;;;;;8.59;50.32;99660.31;3417794;28;20043;-72
2021/12/18 08:09:07;;;;;;;3.60;1.58;;;;;;;8.53;50.19;99655.75;3414871;28;20409;-70
2021/12/18 08:10:48;;;;;;;2.70;1.48;;;;;;;8.40;50.15;99651.06;3416252;29;20082;-72
2021/12/18 08:12:29;;;;;;;3.45;1.52;;;;;;;8.37;49.95;99650.56;3399266;29;20090;-71
2021/12/18 08:14:10;;;;;;;1.88;1.20;;;;;;;8.28;49.97;99647.16;3398985;29;20527;-72
2021/12/18 08:15:51;;;;;;;2.08;1.30;;;;;;;8.19;49.94;99649.06;3413377;29;20043;-72
2021/12/18 08:17:31;;;;;;;2.08;1.35;;;;;;;8.12;49.88;99645.47;3422600;28;20037;-73
2021/12/18 08:19:12;;;;;;;3.60;1.92;;;;;;;8.04;50.02;99640.25;3429834;28;20038;-71
2021/12/18 08:20:53;;;;;;;7.82;2.00;;;;;;;7.99;49.68;99637.31;3422040;28;20035;-71
2021/12/18 08:22:34;;;;;;;2.80;1.65;;;;;;;7.94;49.97;99640.50;3427479;28;20455;-73
2021/12/18 08:24:14;;;;;;;2.22;1.73;;;;;;;7.89;50.10;99636.72;3430137;28;20043;-71
2021/12/18 08:25:55;;;;;;;4.18;1.48;;;;;;;7.82;49.91;99631.28;3415311;29;20047;-70
2021/12/18 08:27:36;;;;;;;5.00;1.65;;;;;;;7.80;49.87;99634.16;3426941;28;20054;-70
2021/12/18 08:29:17;;;;;;;3.20;1.48;;;;;;;7.76;49.85;99630.19;3421391;28;20054;-71
2021/12/18 08:30:57;;;;;;;3.42;1.90;;;;;;;7.72;49.83;99620.94;3415556;29;20070;-72
2021/12/18 08:32:40;;;;;;;5.70;1.30;;;;;;;7.71;49.81;99618.47;3414607;29;20427;-72
2021/12/18 08:34:21;;;;;;;4.72;1.75;;;;;;;7.68;49.68;99614.34;3416596;29;20066;-71
2021/12/18 08:36:02;;;;;;;4.75;1.55;;;;;;;7.67;49.86;99599.44;3424477;28;20035;-72
2021/12/18 08:37:43;;;;;;;3.35;1.65;;;;;;;7.63;49.82;99595.47;3421259;28;20495;-71
2021/12/18 08:39:24;;;;;;;2.65;1.20;;;;;;;7.67;49.76;99602.09;3416367;29;20047;-71
2021/12/18 08:41:05;;;;;;;2.63;1.80;;;;;;;7.67;49.98;99601.25;3416689;29;20050;-70
2021/12/18 08:42:46;;;;;;;2.50;1.30;;;;;;;7.67;49.76;99594.13;3418136;28;20494;-72
2021/12/18 08:44:27;;;;;;;2.15;1.80;;;;;;;7.69;49.73;99596.59;3416419;28;20098;-71
2021/12/18 08:46:07;;;;;;;4.20;2.13;;;;;;;7.71;49.86;99610.50;3429857;28;20039;-72